This is the latest recevied weather packets stored in our database for station/object KC7UNY-13. If no packets are shown the sender has not sent any weather packets the latest 1 day(s).
| Time | Temp. | Humidity | Pressure | Rain* | Wind** | Luminosity | Snow |
|---|---|---|---|---|---|---|---|
| 1778008994 | 22.78° C | 44% | 1011.2 hPa | 0 mm | 1.34 m/s, 168° | 268 W/m² | - |
| 1778008691 | 22.78° C | 42% | 1011.4 hPa | 0 mm | 1.34 m/s, 305° | 231 W/m² | - |
| 1778008390 | 22.78° C | 42% | 1011.3 hPa | 0 mm | 0.89 m/s, 259° | 266 W/m² | - |
| 1778008086 | 23.33° C | 41% | 1011.5 hPa | 0 mm | 2.24 m/s, 287° | 196 W/m² | - |
| 1778007781 | 23.33° C | 42% | 1011.6 hPa | 0 mm | 0.89 m/s, 225° | 441 W/m² | - |
| 1778007478 | 23.89° C | 42% | 1011.5 hPa | 0 mm | 0.45 m/s, 10° | 596 W/m² | - |
| 1778007174 | 23.33° C | 42% | 1011.8 hPa | 0 mm | 1.79 m/s, 34° | 778 W/m² | - |
| 1778006870 | 23.33° C | 43% | 1011.6 hPa | 0 mm | 1.34 m/s, 49° | 161 W/m² | - |
| 1778006568 | 23.33° C | 42% | 1011.7 hPa | 0 mm | 0.45 m/s, 279° | 816 W/m² | - |
| 1778006264 | 23.33° C | 42% | 1011.7 hPa | 0 mm | 1.34 m/s, 299° | 812 W/m² | - |
| 1778005962 | 23.33° C | 42% | 1012 hPa | 0 mm | 0.89 m/s, 344° | 810 W/m² | - |
| 1778005658 | 23.33° C | 43% | 1012 hPa | 0 mm | 1.79 m/s, 287° | 855 W/m² | - |
| 1778005355 | 22.78° C | 45% | 1011.9 hPa | 0 mm | 0.89 m/s, 315° | 890 W/m² | - |
| 1778005051 | 22.78° C | 45% | 1011.8 hPa | 0 mm | 0.45 m/s, 27° | 193 W/m² | - |
| 1778004749 | 22.22° C | 45% | 1011.7 hPa | 0 mm | 0.89 m/s, 345° | 309 W/m² | - |
| 1778004445 | 22.22° C | 46% | 1011.9 hPa | 0 mm | 0.89 m/s, 342° | 270 W/m² | - |
| 1778004142 | 22.78° C | 43% | 1011.8 hPa | 0 mm | 1.79 m/s, 189° | 207 W/m² | - |
| 1778003838 | 22.78° C | 44% | 1011.8 hPa | 0 mm | 1.79 m/s, 282° | 810 W/m² | - |
| 1778003535 | 22.78° C | 45% | 1011.8 hPa | 0 mm | 1.34 m/s, 281° | 815 W/m² | - |
| 1778003231 | 22.22° C | 46% | 1011.7 hPa | 0 mm | 1.79 m/s, 202° | 614 W/m² | - |
| 1778002929 | 22.78° C | 48% | 1011.9 hPa | 0 mm | 0.89 m/s, 6° | 287 W/m² | - |
| 1778002624 | 22.78° C | 48% | 1011.9 hPa | 0 mm | 0.45 m/s, 53° | 856 W/m² | - |
| 1778002321 | 21.67° C | 51% | 1011.9 hPa | 0 mm | 0.89 m/s, 321° | 240 W/m² | - |
| 1778002019 | 21.67° C | 51% | 1012 hPa | 0 mm | 0 m/s | 270 W/m² | - |
| 1778001715 | 21.11° C | 52% | 1011.9 hPa | 0 mm | 0.89 m/s, 311° | 178 W/m² | - |
* Rain latest hour (hover to see other rain measurements)
** Current wind speed in m/s (hover to see current wind gust speed)